TREK05 RPUO-RPMD
Flight info
| Callsign | TREK05 |
|---|---|
| Flight time | N/A |
| Altitude | 28000 |
| Route | ABVAR M646 LAO/N0333F270 B462 CAB A461 MIA W11 MCT W8 JOFER JOFER1 |
| Aircraft | C130/M-SDE2E3FGRY/H |
Departure
| Time | 2026-05-04 06:11 |
|---|---|
| Airport | Basco Airport (RPUO) |
Arrival
| Time | N/A |
|---|---|
| Airport | Francisco Bangoy International Airport (RPMD) |
| Time | Latitude | Longitude | Altitude | Speed | Heading |
|---|---|---|---|---|---|
| 2026-05-04 06:05 | 20.45393 | 121.98408 | 313 ft | 0 kts | 236° |
| 2026-05-04 06:08 | 20.45373 | 121.98376 | 312 ft | 26 kts | 235° |
| 2026-05-04 06:08 | 20.45145 | 121.98024 | 312 ft | 88 kts | 235° |
| 2026-05-04 06:09 | 20.44712 | 121.97347 | 456 ft | 122 kts | 234° |
| 2026-05-04 06:09 | 20.44325 | 121.96461 | 666 ft | 146 kts | 248° |
| 2026-05-04 06:11 | 20.38110 | 121.88712 | 3138 ft | 218 kts | 229° |
| 2026-05-04 06:11 | 20.37139 | 121.87458 | 3573 ft | 220 kts | 229° |
| 2026-05-04 06:13 | 20.30269 | 121.78455 | 6679 ft | 227 kts | 230° |
| 2026-05-04 06:14 | 20.24340 | 121.70689 | 9519 ft | 221 kts | 231° |
| 2026-05-04 06:14 | 20.23371 | 121.69422 | 10013 ft | 220 kts | 232° |
| 2026-05-04 06:15 | 20.22406 | 121.68156 | 10461 ft | 220 kts | 232° |
| 2026-05-04 06:15 | 20.21445 | 121.66893 | 10904 ft | 219 kts | 231° |
| 2026-05-04 06:15 | 20.20487 | 121.65632 | 11381 ft | 219 kts | 231° |
| 2026-05-04 06:15 | 20.19528 | 121.64374 | 11844 ft | 219 kts | 231° |
| 2026-05-04 06:16 | 20.18570 | 121.63114 | 12310 ft | 219 kts | 231° |
| 2026-05-04 06:16 | 20.17623 | 121.61870 | 12770 ft | 219 kts | 231° |
| 2026-05-04 06:16 | 20.16663 | 121.60612 | 13252 ft | 219 kts | 231° |
| 2026-05-04 06:16 | 20.15702 | 121.59352 | 13733 ft | 219 kts | 231° |
| 2026-05-04 06:17 | 20.14732 | 121.58077 | 14165 ft | 219 kts | 232° |
| 2026-05-04 06:17 | 20.13788 | 121.56841 | 14576 ft | 218 kts | 232° |
| 2026-05-04 06:17 | 20.12833 | 121.55591 | 15009 ft | 217 kts | 232° |
| 2026-05-04 06:17 | 20.11881 | 121.54347 | 15440 ft | 216 kts | 232° |
| 2026-05-04 06:18 | 20.10933 | 121.53107 | 15855 ft | 215 kts | 232° |
| 2026-05-04 06:18 | 20.09988 | 121.51876 | 16268 ft | 215 kts | 232° |
| 2026-05-04 06:18 | 20.09047 | 121.50647 | 16708 ft | 214 kts | 232° |
| 2026-05-04 06:20 | 20.02851 | 121.42563 | 19259 ft | 209 kts | 232° |
| 2026-05-04 06:20 | 20.01640 | 121.40985 | 19717 ft | 207 kts | 233° |
| 2026-05-04 06:21 | 19.98311 | 121.36640 | 20916 ft | 205 kts | 233° |
| 2026-05-04 06:21 | 19.97413 | 121.35468 | 21225 ft | 204 kts | 233° |
| 2026-05-04 06:22 | 19.96531 | 121.34314 | 21541 ft | 203 kts | 233° |
| 2026-05-04 06:22 | 19.95626 | 121.33136 | 21847 ft | 202 kts | 233° |
| 2026-05-04 06:25 | 19.84234 | 121.18296 | 25038 ft | 198 kts | 234° |
| 2026-05-04 06:25 | 19.83362 | 121.17162 | 25223 ft | 198 kts | 234° |
| 2026-05-04 06:26 | 19.82490 | 121.16028 | 25428 ft | 198 kts | 234° |
| 2026-05-04 06:26 | 19.81616 | 121.14894 | 25623 ft | 198 kts | 234° |
| 2026-05-04 06:26 | 19.80745 | 121.13760 | 25814 ft | 198 kts | 234° |
| 2026-05-04 06:26 | 19.79872 | 121.12625 | 25999 ft | 198 kts | 234° |
| 2026-05-04 06:27 | 19.76089 | 121.07677 | 26078 ft | 248 kts | 234° |
| 2026-05-04 06:28 | 19.74972 | 121.06214 | 26098 ft | 261 kts | 234° |
| 2026-05-04 06:28 | 19.73810 | 121.04704 | 26324 ft | 266 kts | 233° |
| 2026-05-04 06:28 | 19.72634 | 121.03183 | 26608 ft | 267 kts | 233° |
| 2026-05-04 06:28 | 19.71450 | 121.01657 | 26888 ft | 269 kts | 233° |
| 2026-05-04 06:29 | 19.70258 | 121.00120 | 27166 ft | 270 kts | 233° |
| 2026-05-04 06:29 | 19.69063 | 120.98578 | 27444 ft | 271 kts | 233° |
| 2026-05-04 06:29 | 19.67866 | 120.97032 | 27744 ft | 272 kts | 233° |
| 2026-05-04 06:29 | 19.66661 | 120.95476 | 27911 ft | 277 kts | 234° |
| 2026-05-04 06:30 | 19.65419 | 120.93867 | 27924 ft | 287 kts | 233° |
| 2026-05-04 06:30 | 19.64138 | 120.92207 | 27946 ft | 295 kts | 234° |
| 2026-05-04 06:30 | 19.62818 | 120.90498 | 27960 ft | 303 kts | 233° |
| 2026-05-04 06:30 | 19.61466 | 120.88748 | 27975 ft | 310 kts | 233° |
| 2026-05-04 06:31 | 19.60083 | 120.86963 | 27984 ft | 317 kts | 233° |
| 2026-05-04 06:31 | 19.58674 | 120.85139 | 28002 ft | 322 kts | 233° |
| 2026-05-04 06:31 | 19.55788 | 120.81404 | 28016 ft | 332 kts | 233° |
| 2026-05-04 06:33 | 19.43649 | 120.65785 | 28027 ft | 353 kts | 228° |
| 2026-05-04 06:34 | 19.41621 | 120.64289 | 28018 ft | 363 kts | 206° |
| 2026-05-04 06:34 | 19.39181 | 120.63530 | 28025 ft | 368 kts | 197° |
| 2026-05-04 06:34 | 19.34094 | 120.62606 | 28029 ft | 373 kts | 192° |
| 2026-05-04 06:36 | 19.13159 | 120.60572 | 28028 ft | 381 kts | 188° |
| 2026-05-04 06:37 | 19.07873 | 120.60152 | 28026 ft | 381 kts | 188° |
| 2026-05-04 06:37 | 19.02577 | 120.59732 | 28025 ft | 382 kts | 188° |
| 2026-05-04 06:38 | 18.97274 | 120.59308 | 28021 ft | 382 kts | 188° |
| 2026-05-04 06:40 | 18.76037 | 120.57586 | 28012 ft | 383 kts | 188° |
| 2026-05-04 06:40 | 18.70725 | 120.57153 | 28010 ft | 383 kts | 188° |
| 2026-05-04 06:41 | 18.65408 | 120.56727 | 28004 ft | 383 kts | 188° |
| 2026-05-04 06:41 | 18.60090 | 120.56302 | 27999 ft | 383 kts | 188° |
| 2026-05-04 06:42 | 18.57429 | 120.56089 | 27996 ft | 383 kts | 188° |
| 2026-05-04 06:42 | 18.54773 | 120.55876 | 27995 ft | 383 kts | 188° |
| 2026-05-04 06:42 | 18.52112 | 120.55663 | 27988 ft | 383 kts | 188° |
| 2026-05-04 06:44 | 18.33521 | 120.54170 | 27958 ft | 384 kts | 188° |
| 2026-05-04 06:44 | 18.30860 | 120.53955 | 27955 ft | 384 kts | 188° |
| 2026-05-04 06:44 | 18.28163 | 120.53737 | 27957 ft | 384 kts | 188° |
| 2026-05-04 06:45 | 18.25497 | 120.53522 | 27955 ft | 384 kts | 188° |
| 2026-05-04 06:45 | 18.22870 | 120.53310 | 27955 ft | 384 kts | 187° |
| 2026-05-04 06:45 | 18.20192 | 120.53212 | 27952 ft | 387 kts | 181° |
| 2026-05-04 06:45 | 18.17501 | 120.53381 | 27954 ft | 388 kts | 178° |
| 2026-05-04 06:46 | 18.14813 | 120.53679 | 27954 ft | 389 kts | 176° |
| 2026-05-04 06:46 | 18.12127 | 120.54056 | 27956 ft | 390 kts | 175° |
| 2026-05-04 06:46 | 18.09442 | 120.54488 | 27954 ft | 390 kts | 174° |
| 2026-05-04 06:46 | 18.06764 | 120.54957 | 27956 ft | 391 kts | 173° |
| 2026-05-04 06:48 | 17.88007 | 120.58455 | 27965 ft | 391 kts | 173° |
| 2026-05-04 06:48 | 17.85324 | 120.58954 | 27970 ft | 392 kts | 173° |
| 2026-05-04 06:49 | 17.82638 | 120.59452 | 27975 ft | 392 kts | 173° |
| 2026-05-04 06:50 | 17.63848 | 120.62918 | 27979 ft | 392 kts | 173° |
| 2026-05-04 06:51 | 17.61163 | 120.63412 | 27980 ft | 392 kts | 173° |
| 2026-05-04 06:51 | 17.58476 | 120.63908 | 27981 ft | 392 kts | 173° |
| 2026-05-04 06:51 | 17.55785 | 120.64403 | 27985 ft | 392 kts | 173° |
| 2026-05-04 06:51 | 17.53096 | 120.64897 | 27985 ft | 393 kts | 173° |
| 2026-05-04 06:52 | 17.50409 | 120.65394 | 27990 ft | 393 kts | 173° |
| 2026-05-04 06:52 | 17.47715 | 120.65890 | 27992 ft | 393 kts | 173° |
| 2026-05-04 06:52 | 17.45024 | 120.66386 | 27994 ft | 393 kts | 173° |
| 2026-05-04 06:52 | 17.42333 | 120.66881 | 27999 ft | 393 kts | 173° |
| 2026-05-04 06:53 | 17.36947 | 120.67874 | 28002 ft | 393 kts | 173° |
| 2026-05-04 06:53 | 17.31569 | 120.68865 | 28003 ft | 392 kts | 173° |
| 2026-05-04 06:54 | 17.26207 | 120.69853 | 28010 ft | 391 kts | 173° |
| 2026-05-04 06:54 | 17.20835 | 120.70842 | 28013 ft | 392 kts | 173° |
| 2026-05-04 06:55 | 17.15459 | 120.71831 | 28021 ft | 393 kts | 173° |
| 2026-05-04 06:55 | 17.10108 | 120.72817 | 28028 ft | 393 kts | 172° |
| 2026-05-04 06:57 | 16.88523 | 120.76790 | 28044 ft | 394 kts | 172° |
| 2026-05-04 06:58 | 16.83119 | 120.77783 | 28046 ft | 394 kts | 172° |
| 2026-05-04 06:58 | 16.77721 | 120.78776 | 28048 ft | 394 kts | 172° |
| 2026-05-04 06:59 | 16.72317 | 120.79771 | 28049 ft | 395 kts | 172° |
| 2026-05-04 06:59 | 16.66911 | 120.80764 | 28046 ft | 395 kts | 172° |
| 2026-05-04 07:01 | 16.45383 | 120.84716 | 28031 ft | 392 kts | 172° |
| 2026-05-04 07:02 | 16.40003 | 120.85700 | 28024 ft | 393 kts | 172° |
| 2026-05-04 07:02 | 16.34627 | 120.86683 | 28015 ft | 391 kts | 172° |
| 2026-05-04 07:03 | 16.29268 | 120.87665 | 28003 ft | 391 kts | 172° |
| 2026-05-04 07:03 | 16.26582 | 120.88158 | 27999 ft | 391 kts | 172° |
| 2026-05-04 07:03 | 16.23905 | 120.88648 | 27997 ft | 391 kts | 172° |
| 2026-05-04 07:04 | 16.21223 | 120.89135 | 27995 ft | 391 kts | 172° |
| 2026-05-04 07:04 | 16.18540 | 120.89622 | 28001 ft | 391 kts | 172° |
| 2026-05-04 07:04 | 16.15862 | 120.90109 | 27997 ft | 391 kts | 172° |
| 2026-05-04 07:04 | 16.13182 | 120.90600 | 27995 ft | 391 kts | 172° |
| 2026-05-04 07:05 | 16.11408 | 120.90925 | 27991 ft | 391 kts | 172° |
| 2026-05-04 07:05 | 16.07859 | 120.91573 | 27990 ft | 391 kts | 172° |
| 2026-05-04 07:05 | 16.05182 | 120.92061 | 27985 ft | 391 kts | 172° |
| 2026-05-04 07:05 | 16.02508 | 120.92547 | 27982 ft | 390 kts | 172° |
| 2026-05-04 07:06 | 15.97155 | 120.93523 | 27981 ft | 391 kts | 172° |
| 2026-05-04 07:06 | 15.95344 | 120.93854 | 27976 ft | 391 kts | 172° |
| 2026-05-04 07:06 | 15.91792 | 120.94500 | 27974 ft | 392 kts | 172° |
| 2026-05-04 07:07 | 15.89108 | 120.94988 | 27976 ft | 391 kts | 172° |
| 2026-05-04 07:08 | 15.71269 | 120.98240 | 27970 ft | 390 kts | 172° |
| 2026-05-04 07:09 | 15.68598 | 120.98725 | 27970 ft | 390 kts | 172° |
| 2026-05-04 07:09 | 15.65925 | 120.99209 | 27973 ft | 389 kts | 171° |
| 2026-05-04 07:09 | 15.63255 | 120.99694 | 27974 ft | 389 kts | 172° |
| 2026-05-04 07:09 | 15.60592 | 121.00180 | 27970 ft | 389 kts | 172° |
| 2026-05-04 07:10 | 15.57925 | 121.00665 | 27975 ft | 389 kts | 172° |
| 2026-05-04 07:10 | 15.55270 | 121.01148 | 27975 ft | 388 kts | 171° |
| 2026-05-04 07:12 | 15.36493 | 121.02317 | 27981 ft | 386 kts | 181° |
| 2026-05-04 07:12 | 15.33807 | 121.02329 | 27982 ft | 386 kts | 181° |
| 2026-05-04 07:12 | 15.31123 | 121.02334 | 27984 ft | 386 kts | 181° |
| 2026-05-04 07:12 | 15.28436 | 121.02336 | 27985 ft | 386 kts | 181° |
| 2026-05-04 07:13 | 15.25749 | 121.02335 | 27983 ft | 386 kts | 181° |
| 2026-05-04 07:13 | 15.23068 | 121.02333 | 27981 ft | 385 kts | 181° |
| 2026-05-04 07:13 | 15.20419 | 121.02330 | 27987 ft | 386 kts | 181° |
| 2026-05-04 07:14 | 15.09691 | 121.02309 | 27988 ft | 386 kts | 181° |
| 2026-05-04 07:14 | 15.07008 | 121.02305 | 27991 ft | 386 kts | 181° |
| 2026-05-04 07:15 | 15.04327 | 121.02299 | 27992 ft | 386 kts | 181° |
| 2026-05-04 07:15 | 15.01640 | 121.02294 | 27990 ft | 386 kts | 181° |
| 2026-05-04 07:15 | 14.98952 | 121.02290 | 27990 ft | 386 kts | 181° |
| 2026-05-04 07:15 | 14.96264 | 121.02283 | 27988 ft | 386 kts | 181° |
| 2026-05-04 07:16 | 14.93574 | 121.02275 | 27992 ft | 387 kts | 181° |
| 2026-05-04 07:16 | 14.90879 | 121.02268 | 27991 ft | 387 kts | 181° |
| 2026-05-04 07:16 | 14.88188 | 121.02260 | 27990 ft | 387 kts | 181° |
| 2026-05-04 07:16 | 14.85498 | 121.02253 | 27989 ft | 387 kts | 181° |
| 2026-05-04 07:17 | 14.83433 | 121.02248 | 27991 ft | 387 kts | 181° |
| 2026-05-04 07:17 | 14.80738 | 121.02242 | 27993 ft | 387 kts | 181° |
| 2026-05-04 07:17 | 14.78041 | 121.02236 | 27991 ft | 387 kts | 181° |
| 2026-05-04 07:17 | 14.75346 | 121.02230 | 27993 ft | 388 kts | 181° |
| 2026-05-04 07:18 | 14.72651 | 121.02222 | 27991 ft | 388 kts | 181° |
| 2026-05-04 07:18 | 14.69952 | 121.02215 | 27992 ft | 388 kts | 180° |
| 2026-05-04 07:18 | 14.67258 | 121.02209 | 27991 ft | 387 kts | 181° |
| 2026-05-04 07:18 | 14.64561 | 121.02202 | 27991 ft | 388 kts | 181° |
| 2026-05-04 07:19 | 14.61861 | 121.02196 | 27995 ft | 388 kts | 181° |
| 2026-05-04 07:19 | 14.59165 | 121.02188 | 27993 ft | 388 kts | 181° |
| 2026-05-04 07:19 | 14.56470 | 121.02182 | 27992 ft | 388 kts | 181° |
| 2026-05-04 07:19 | 14.53771 | 121.02250 | 27979 ft | 388 kts | 172° |
| 2026-05-04 07:20 | 14.51196 | 121.03070 | 27975 ft | 389 kts | 155° |
| 2026-05-04 07:20 | 14.48793 | 121.04348 | 27990 ft | 389 kts | 151° |
| 2026-05-04 07:20 | 14.46454 | 121.05758 | 27992 ft | 389 kts | 149° |
| 2026-05-04 07:20 | 14.44163 | 121.07234 | 27994 ft | 389 kts | 148° |
| 2026-05-04 07:22 | 14.28570 | 121.18219 | 27985 ft | 387 kts | 145° |
| 2026-05-04 07:22 | 14.26361 | 121.19810 | 27981 ft | 387 kts | 145° |
| 2026-05-04 07:23 | 14.24159 | 121.21397 | 27978 ft | 387 kts | 145° |
| 2026-05-04 07:23 | 14.21954 | 121.22986 | 27972 ft | 387 kts | 145° |
| 2026-05-04 07:23 | 14.19749 | 121.24575 | 27972 ft | 386 kts | 145° |
| 2026-05-04 07:23 | 14.17577 | 121.26137 | 27968 ft | 386 kts | 146° |
| 2026-05-04 07:24 | 14.15375 | 121.27721 | 27966 ft | 386 kts | 145° |
| 2026-05-04 07:24 | 14.13172 | 121.29306 | 27970 ft | 386 kts | 145° |
| 2026-05-04 07:24 | 14.10973 | 121.30888 | 27967 ft | 386 kts | 145° |
| 2026-05-04 07:24 | 14.08767 | 121.32472 | 27963 ft | 386 kts | 146° |
| 2026-05-04 07:25 | 14.06570 | 121.34051 | 27961 ft | 386 kts | 145° |
| 2026-05-04 07:26 | 13.91188 | 121.45098 | 27962 ft | 384 kts | 145° |
| 2026-05-04 07:27 | 13.88997 | 121.46670 | 27959 ft | 384 kts | 145° |
| 2026-05-04 07:27 | 13.86804 | 121.48241 | 27959 ft | 384 kts | 145° |
| 2026-05-04 07:27 | 13.84615 | 121.49812 | 27960 ft | 384 kts | 145° |
| 2026-05-04 07:27 | 13.82428 | 121.51380 | 27957 ft | 383 kts | 145° |
| 2026-05-04 07:28 | 13.80241 | 121.52948 | 27957 ft | 383 kts | 145° |
| 2026-05-04 07:28 | 13.78057 | 121.54512 | 27956 ft | 383 kts | 145° |
| 2026-05-04 07:28 | 13.75873 | 121.56077 | 27956 ft | 382 kts | 145° |
| 2026-05-04 07:28 | 13.73693 | 121.57638 | 27955 ft | 382 kts | 145° |
| 2026-05-04 07:29 | 13.71508 | 121.59202 | 27957 ft | 382 kts | 145° |
| 2026-05-04 07:29 | 13.69329 | 121.60761 | 27956 ft | 382 kts | 145° |
| 2026-05-04 07:29 | 13.67147 | 121.62323 | 27956 ft | 382 kts | 145° |
| 2026-05-04 07:29 | 13.64968 | 121.63882 | 27957 ft | 382 kts | 145° |
| 2026-05-04 07:30 | 13.62786 | 121.65445 | 27953 ft | 382 kts | 145° |
| 2026-05-04 07:30 | 13.60604 | 121.67004 | 27954 ft | 382 kts | 145° |
| 2026-05-04 07:30 | 13.58424 | 121.68562 | 27955 ft | 382 kts | 145° |
| 2026-05-04 07:30 | 13.56244 | 121.70121 | 27955 ft | 382 kts | 145° |
| 2026-05-04 07:31 | 13.54062 | 121.71680 | 27954 ft | 382 kts | 145° |
| 2026-05-04 07:31 | 13.51883 | 121.73237 | 27954 ft | 382 kts | 145° |
| 2026-05-04 07:33 | 13.36609 | 121.84140 | 27949 ft | 382 kts | 145° |
| 2026-05-04 07:33 | 13.34424 | 121.85699 | 27951 ft | 382 kts | 145° |
| 2026-05-04 07:33 | 13.32240 | 121.87255 | 27953 ft | 382 kts | 145° |
| 2026-05-04 07:33 | 13.30052 | 121.88814 | 27952 ft | 383 kts | 145° |
| 2026-05-04 07:34 | 13.27867 | 121.90371 | 27950 ft | 383 kts | 145° |
| 2026-05-04 07:34 | 13.25678 | 121.91930 | 27954 ft | 383 kts | 145° |
| 2026-05-04 07:34 | 13.23491 | 121.93489 | 27953 ft | 383 kts | 145° |
| 2026-05-04 07:34 | 13.21304 | 121.95049 | 27953 ft | 383 kts | 145° |
| 2026-05-04 07:35 | 13.19117 | 121.96607 | 27954 ft | 383 kts | 145° |
| 2026-05-04 07:35 | 13.16925 | 121.98168 | 27956 ft | 383 kts | 145° |
| 2026-05-04 07:35 | 13.14734 | 121.99727 | 27953 ft | 383 kts | 145° |
| 2026-05-04 07:35 | 13.12542 | 122.01285 | 27953 ft | 383 kts | 145° |
| 2026-05-04 07:36 | 13.10379 | 122.02823 | 27954 ft | 383 kts | 145° |
| 2026-05-04 07:36 | 13.08186 | 122.04381 | 27953 ft | 383 kts | 145° |
| 2026-05-04 07:38 | 12.92842 | 122.15290 | 27956 ft | 384 kts | 144° |
| 2026-05-04 07:38 | 12.90648 | 122.16850 | 27957 ft | 384 kts | 144° |
| 2026-05-04 07:38 | 12.88453 | 122.18408 | 27958 ft | 384 kts | 144° |
| 2026-05-04 07:38 | 12.86263 | 122.19963 | 27956 ft | 383 kts | 145° |
| 2026-05-04 07:39 | 12.84068 | 122.21521 | 27957 ft | 383 kts | 144° |
| 2026-05-04 07:39 | 12.81878 | 122.23076 | 27955 ft | 383 kts | 144° |
| 2026-05-04 07:39 | 12.79686 | 122.24633 | 27955 ft | 383 kts | 144° |
| 2026-05-04 07:39 | 12.77494 | 122.26189 | 27954 ft | 383 kts | 144° |
| 2026-05-04 07:40 | 12.75304 | 122.27743 | 27954 ft | 383 kts | 144° |
| 2026-05-04 07:40 | 12.73114 | 122.29295 | 27952 ft | 383 kts | 144° |
| 2026-05-04 07:40 | 12.70924 | 122.30848 | 27954 ft | 383 kts | 144° |
| 2026-05-04 07:40 | 12.68734 | 122.32398 | 27957 ft | 383 kts | 144° |
| 2026-05-04 07:41 | 12.66546 | 122.33949 | 27957 ft | 382 kts | 144° |
| 2026-05-04 07:41 | 12.64356 | 122.35501 | 27955 ft | 382 kts | 144° |
| 2026-05-04 07:41 | 12.62172 | 122.37050 | 27957 ft | 382 kts | 144° |
| 2026-05-04 07:41 | 12.59985 | 122.38598 | 27958 ft | 382 kts | 144° |
| 2026-05-04 07:42 | 12.57800 | 122.40144 | 27958 ft | 382 kts | 144° |
| 2026-05-04 07:42 | 12.55615 | 122.41691 | 27957 ft | 382 kts | 144° |
| 2026-05-04 07:42 | 12.53432 | 122.43238 | 27957 ft | 382 kts | 144° |
| 2026-05-04 07:42 | 12.51247 | 122.44785 | 27958 ft | 382 kts | 144° |
| 2026-05-04 07:43 | 12.49062 | 122.46332 | 27958 ft | 382 kts | 144° |
| 2026-05-04 07:43 | 12.46880 | 122.47875 | 27958 ft | 382 kts | 144° |
| 2026-05-04 07:43 | 12.44693 | 122.49423 | 27959 ft | 382 kts | 144° |
| 2026-05-04 07:43 | 12.42507 | 122.50965 | 27958 ft | 382 kts | 144° |
| 2026-05-04 07:44 | 12.40324 | 122.52510 | 27959 ft | 382 kts | 144° |
| 2026-05-04 07:44 | 12.38139 | 122.54054 | 27957 ft | 382 kts | 144° |
| 2026-05-04 07:44 | 12.35951 | 122.55599 | 27956 ft | 382 kts | 144° |
| 2026-05-04 07:44 | 12.33769 | 122.57144 | 27955 ft | 382 kts | 144° |
| 2026-05-04 07:45 | 12.31580 | 122.58687 | 27956 ft | 382 kts | 144° |
| 2026-05-04 07:45 | 12.29394 | 122.60229 | 27955 ft | 382 kts | 144° |
| 2026-05-04 07:45 | 12.27212 | 122.61769 | 27954 ft | 381 kts | 144° |
| 2026-05-04 07:45 | 12.25029 | 122.63308 | 27955 ft | 381 kts | 144° |
| 2026-05-04 07:46 | 12.22843 | 122.64849 | 27957 ft | 381 kts | 144° |
| 2026-05-04 07:46 | 12.20663 | 122.66387 | 27956 ft | 381 kts | 144° |
| 2026-05-04 07:46 | 12.18479 | 122.67929 | 27957 ft | 381 kts | 144° |
| 2026-05-04 07:46 | 12.16300 | 122.69467 | 27956 ft | 381 kts | 144° |
| 2026-05-04 07:47 | 12.14118 | 122.71004 | 27954 ft | 381 kts | 144° |
| 2026-05-04 07:47 | 12.11938 | 122.72541 | 27951 ft | 381 kts | 144° |
| 2026-05-04 07:47 | 12.09754 | 122.74080 | 27956 ft | 381 kts | 144° |
| 2026-05-04 07:49 | 11.94556 | 122.84781 | 27955 ft | 380 kts | 144° |
| 2026-05-04 07:49 | 11.92378 | 122.86315 | 27954 ft | 380 kts | 144° |
| 2026-05-04 07:49 | 11.90201 | 122.87846 | 27956 ft | 380 kts | 144° |
| 2026-05-04 07:50 | 11.88024 | 122.89378 | 27953 ft | 380 kts | 144° |
| 2026-05-04 07:50 | 11.85847 | 122.90908 | 27955 ft | 380 kts | 144° |
| 2026-05-04 07:50 | 11.83665 | 122.92440 | 27952 ft | 380 kts | 144° |
| 2026-05-04 07:50 | 11.81486 | 122.93972 | 27954 ft | 380 kts | 144° |
| 2026-05-04 07:51 | 11.80016 | 122.95003 | 27952 ft | 380 kts | 144° |
| 2026-05-04 07:51 | 11.77130 | 122.97029 | 27950 ft | 380 kts | 144° |
| 2026-05-04 07:51 | 11.74953 | 122.98558 | 27952 ft | 380 kts | 144° |
| 2026-05-04 07:51 | 11.72773 | 123.00090 | 27953 ft | 380 kts | 144° |
| 2026-05-04 07:52 | 11.70597 | 123.01621 | 27952 ft | 380 kts | 144° |
| 2026-05-04 07:52 | 11.68419 | 123.03152 | 27953 ft | 380 kts | 144° |
| 2026-05-04 07:52 | 11.66240 | 123.04678 | 27951 ft | 380 kts | 144° |
| 2026-05-04 07:52 | 11.64061 | 123.06207 | 27952 ft | 380 kts | 144° |
| 2026-05-04 07:53 | 11.61882 | 123.07736 | 27951 ft | 380 kts | 144° |
| 2026-05-04 07:54 | 11.47380 | 123.17910 | 27950 ft | 380 kts | 144° |
| 2026-05-04 07:55 | 11.45204 | 123.19437 | 27952 ft | 380 kts | 144° |
| 2026-05-04 07:55 | 11.43026 | 123.20963 | 27953 ft | 380 kts | 144° |
| 2026-05-04 07:55 | 11.40848 | 123.22489 | 27954 ft | 380 kts | 144° |
| 2026-05-04 07:55 | 11.38666 | 123.24017 | 27953 ft | 380 kts | 144° |
| 2026-05-04 07:56 | 11.36487 | 123.25542 | 27953 ft | 380 kts | 144° |
| 2026-05-04 07:56 | 11.34305 | 123.27072 | 27953 ft | 380 kts | 144° |
| 2026-05-04 07:56 | 11.32125 | 123.28599 | 27948 ft | 380 kts | 144° |
| 2026-05-04 07:56 | 11.29945 | 123.30125 | 27950 ft | 380 kts | 144° |
| 2026-05-04 07:57 | 11.27764 | 123.31651 | 27952 ft | 380 kts | 144° |
| 2026-05-04 07:57 | 11.25580 | 123.33176 | 27952 ft | 380 kts | 144° |
| 2026-05-04 07:57 | 11.23399 | 123.34699 | 27951 ft | 381 kts | 144° |
| 2026-05-04 07:57 | 11.22660 | 123.35216 | 27953 ft | 380 kts | 144° |
| 2026-05-04 07:58 | 11.12071 | 123.42616 | 27955 ft | 381 kts | 144° |
| 2026-05-04 07:59 | 11.09886 | 123.44138 | 27953 ft | 381 kts | 144° |
| 2026-05-04 07:59 | 11.07701 | 123.45664 | 27952 ft | 381 kts | 144° |
| 2026-05-04 07:59 | 11.05522 | 123.47190 | 27957 ft | 381 kts | 144° |
| 2026-05-04 07:59 | 11.03339 | 123.48719 | 27958 ft | 381 kts | 144° |
| 2026-05-04 08:00 | 11.01157 | 123.50246 | 27958 ft | 381 kts | 144° |
| 2026-05-04 08:00 | 10.98975 | 123.51771 | 27955 ft | 381 kts | 144° |
| 2026-05-04 08:00 | 10.96786 | 123.53298 | 27956 ft | 381 kts | 144° |
| 2026-05-04 08:02 | 10.81487 | 123.63960 | 27962 ft | 381 kts | 144° |
| 2026-05-04 08:02 | 10.79298 | 123.65486 | 27958 ft | 381 kts | 144° |
| 2026-05-04 08:02 | 10.77114 | 123.67006 | 27959 ft | 381 kts | 144° |
| 2026-05-04 08:03 | 10.74925 | 123.68533 | 27959 ft | 381 kts | 144° |
| 2026-05-04 08:03 | 10.72740 | 123.70054 | 27957 ft | 381 kts | 144° |
| 2026-05-04 08:03 | 10.70553 | 123.71577 | 27956 ft | 381 kts | 144° |
| 2026-05-04 08:03 | 10.68364 | 123.73102 | 27956 ft | 381 kts | 144° |
| 2026-05-04 08:04 | 10.66178 | 123.74622 | 27956 ft | 381 kts | 144° |
| 2026-05-04 08:04 | 10.63992 | 123.76144 | 27961 ft | 381 kts | 144° |
| 2026-05-04 08:04 | 10.61803 | 123.77666 | 27961 ft | 381 kts | 144° |
| 2026-05-04 08:04 | 10.59643 | 123.79168 | 27960 ft | 381 kts | 144° |
| 2026-05-04 08:05 | 10.57424 | 123.80711 | 27957 ft | 381 kts | 144° |
| 2026-05-04 08:05 | 10.55236 | 123.82232 | 27953 ft | 381 kts | 144° |
| 2026-05-04 08:05 | 10.53042 | 123.83756 | 27951 ft | 381 kts | 144° |
| 2026-05-04 08:05 | 10.50853 | 123.85277 | 27948 ft | 381 kts | 144° |
| 2026-05-04 08:06 | 10.48662 | 123.86799 | 27946 ft | 381 kts | 144° |
| 2026-05-04 08:06 | 10.46470 | 123.88323 | 27946 ft | 382 kts | 144° |
| 2026-05-04 08:06 | 10.44279 | 123.89846 | 27942 ft | 382 kts | 144° |
| 2026-05-04 08:06 | 10.42086 | 123.91370 | 27944 ft | 382 kts | 144° |
| 2026-05-04 08:08 | 10.26343 | 124.01390 | 27944 ft | 382 kts | 150° |
| 2026-05-04 08:08 | 10.23999 | 124.02662 | 27944 ft | 382 kts | 150° |
| 2026-05-04 08:10 | 10.05182 | 124.12650 | 27947 ft | 382 kts | 151° |
| 2026-05-04 08:11 | 10.02823 | 124.13894 | 27946 ft | 382 kts | 151° |
| 2026-05-04 08:11 | 9.98110 | 124.16385 | 27946 ft | 382 kts | 151° |
| 2026-05-04 08:11 | 9.95748 | 124.17631 | 27950 ft | 382 kts | 151° |
| 2026-05-04 08:12 | 9.93390 | 124.18874 | 27951 ft | 382 kts | 151° |
| 2026-05-04 08:12 | 9.91030 | 124.20118 | 27950 ft | 382 kts | 151° |
| 2026-05-04 08:12 | 9.88669 | 124.21361 | 27949 ft | 382 kts | 151° |
| 2026-05-04 08:12 | 9.87111 | 124.22182 | 27951 ft | 382 kts | 151° |
| 2026-05-04 08:13 | 9.83952 | 124.23845 | 27949 ft | 382 kts | 151° |
| 2026-05-04 08:13 | 9.82390 | 124.24667 | 27950 ft | 382 kts | 151° |
| 2026-05-04 08:13 | 9.80003 | 124.25925 | 27946 ft | 382 kts | 151° |
| 2026-05-04 08:13 | 9.77675 | 124.27151 | 27949 ft | 382 kts | 151° |
| 2026-05-04 08:14 | 9.75319 | 124.28392 | 27951 ft | 382 kts | 151° |
| 2026-05-04 08:14 | 9.72962 | 124.29634 | 27949 ft | 382 kts | 151° |
| 2026-05-04 08:14 | 9.70609 | 124.30879 | 27950 ft | 382 kts | 151° |